createdAt,value
2018-03-07T00:00:20.378Z,5.07
2018-03-07T00:02:49.115Z,5.08
2018-03-07T00:05:19.234Z,5.08
2018-03-07T00:07:48.119Z,5.03
2018-03-07T00:10:23.236Z,4.99
2018-03-07T00:12:52.074Z,4.97
2018-03-07T00:15:21.461Z,5.01
2018-03-07T00:17:50.403Z,4.96
2018-03-07T00:20:19.402Z,5.01
2018-03-07T00:22:48.376Z,4.99
2018-03-07T00:25:17.714Z,4.90
2018-03-07T00:27:47.481Z,4.81
2018-03-07T00:30:16.792Z,4.72
2018-03-07T00:32:45.774Z,4.69
2018-03-07T00:35:14.592Z,4.63
2018-03-07T00:37:43.377Z,4.59
2018-03-07T00:40:13.872Z,4.58
2018-03-07T00:42:43.836Z,4.60
2018-03-07T00:48:06.714Z,4.22
2018-03-07T00:50:36.936Z,4.24
2018-03-07T00:53:05.771Z,4.16
2018-03-07T00:55:36.198Z,4.08
2018-03-07T00:58:05.758Z,3.94
2018-03-07T01:00:34.623Z,4.05
2018-03-07T01:03:03.722Z,4.05
2018-03-07T01:05:34.267Z,3.98
2018-03-07T01:08:04.547Z,3.87
2018-03-07T01:10:33.973Z,3.86
2018-03-07T01:13:03.464Z,3.78
2018-03-07T01:15:32.295Z,3.73
2018-03-07T01:18:03.754Z,3.69
2018-03-07T01:20:32.997Z,3.74
2018-03-07T01:23:02.333Z,3.61
2018-03-07T01:25:31.436Z,3.70
2018-03-07T01:28:00.350Z,3.67
2018-03-07T01:30:29.746Z,3.58
2018-03-07T01:32:59.998Z,3.63
2018-03-07T01:35:28.931Z,3.43
2018-03-07T01:37:57.750Z,3.45
2018-03-07T01:40:26.537Z,3.37
2018-03-07T01:42:55.356Z,3.31
2018-03-07T01:45:24.151Z,3.29
2018-03-07T01:47:52.921Z,3.31
2018-03-07T01:50:21.715Z,3.30
2018-03-07T01:52:50.520Z,3.20
2018-03-07T01:55:19.327Z,3.05
2018-03-07T01:57:48.338Z,2.96
2018-03-07T02:00:17.078Z,3.11
2018-03-07T02:02:45.858Z,2.99
2018-03-07T02:05:14.727Z,2.86
2018-03-07T02:07:45.846Z,2.86
2018-03-07T02:10:14.642Z,2.78
2018-03-07T02:12:43.455Z,2.71
2018-03-07T02:15:14.798Z,2.80
2018-03-07T02:17:43.601Z,2.66
2018-03-07T02:20:12.505Z,2.55
2018-03-07T02:22:41.337Z,2.60
2018-03-07T02:25:10.136Z,2.52
2018-03-07T02:30:11.159Z,2.48
2018-03-07T02:32:39.994Z,2.52
2018-03-07T02:35:09.499Z,2.43
2018-03-07T02:37:38.631Z,2.44
2018-03-07T02:40:08.196Z,2.42
2018-03-07T02:42:36.970Z,2.35
2018-03-07T02:45:06.712Z,2.33
2018-03-07T02:47:36.134Z,2.25
2018-03-07T02:50:05.039Z,2.15
2018-03-07T04:07:48.358Z,1.77
2018-03-07T04:10:17.255Z,1.72
2018-03-07T04:12:46.075Z,1.72
2018-03-07T04:15:16.131Z,1.75
2018-03-07T04:17:45.305Z,1.83
2018-03-07T04:20:14.578Z,1.74
2018-03-07T04:22:43.378Z,1.65
2018-03-07T04:25:12.312Z,1.77
2018-03-07T04:27:41.238Z,1.69
2018-03-07T04:30:11.008Z,1.75
2018-03-07T04:32:40.151Z,1.78
2018-03-07T04:35:10.924Z,1.80
2018-03-07T04:37:40.500Z,1.95
2018-03-07T04:40:09.888Z,1.93
2018-03-07T04:42:39.159Z,1.98
2018-03-07T04:45:09.627Z,1.92
2018-03-07T04:47:38.556Z,1.85
2018-03-07T04:50:08.104Z,1.97
2018-03-07T04:54:18.202Z,2.08
2018-03-07T04:56:46.995Z,2.04
2018-03-07T04:59:15.950Z,2.08
2018-03-07T05:01:46.443Z,1.99
2018-03-07T05:04:15.244Z,1.95
2018-03-07T05:06:44.109Z,2.04
2018-03-07T05:09:12.932Z,2.02
2018-03-07T05:11:43.111Z,2.00
2018-03-07T05:14:12.060Z,2.03
2018-03-07T05:16:41.139Z,2.11
2018-03-07T05:19:09.946Z,2.15
2018-03-07T05:21:39.113Z,2.15
2018-03-07T05:24:08.031Z,2.34
2018-03-07T05:26:36.998Z,2.37
2018-03-07T05:29:06.673Z,2.40
2018-03-07T05:31:41.708Z,2.45
2018-03-07T05:34:10.600Z,2.57
2018-03-07T05:36:39.504Z,2.57
2018-03-07T05:39:08.403Z,2.63
2018-03-07T05:41:37.463Z,2.70
2018-03-07T05:44:06.332Z,2.78
2018-03-07T05:46:35.162Z,2.83
2018-03-07T05:49:04.077Z,2.83
2018-03-07T05:51:32.898Z,2.92
2018-03-07T05:54:01.791Z,3.05
2018-03-07T05:56:30.818Z,3.14
2018-03-07T05:58:59.951Z,3.15
2018-03-07T06:01:28.873Z,3.18
2018-03-07T06:03:57.805Z,3.16
2018-03-07T06:06:26.861Z,3.28
2018-03-07T06:08:55.779Z,3.27
2018-03-07T06:11:24.658Z,3.22
2018-03-07T06:13:53.523Z,3.16
2018-03-07T06:16:22.658Z,3.21
2018-03-07T06:18:51.495Z,3.42
2018-03-07T06:21:20.442Z,3.68
2018-03-07T06:23:49.287Z,3.84
2018-03-07T06:26:19.002Z,3.94
2018-03-07T06:28:47.887Z,3.94
2018-03-07T06:31:16.675Z,3.95
2018-03-07T06:33:48.516Z,3.92
2018-03-07T06:36:17.677Z,4.13
2018-03-07T06:38:55.633Z,4.11
2018-03-07T06:41:31.165Z,4.19
2018-03-07T06:46:46.333Z,4.35
2018-03-07T06:50:21.721Z,4.23
2018-03-07T06:52:51.590Z,4.42
2018-03-07T06:55:20.625Z,4.61
2018-03-07T06:57:50.384Z,4.49
2018-03-07T07:00:19.395Z,4.46
2018-03-07T07:02:49.197Z,4.37
2018-03-07T07:05:18.245Z,4.63
2018-03-07T07:07:47.653Z,4.64
2018-03-07T07:10:16.771Z,4.87
2018-03-07T07:12:45.715Z,4.85
2018-03-07T07:15:14.477Z,5.12
2018-03-07T07:17:43.601Z,5.06
2018-03-07T07:20:12.594Z,5.15
2018-03-07T07:22:41.439Z,5.27
2018-03-07T07:25:10.591Z,5.42
2018-03-07T07:27:39.542Z,5.54
2018-03-07T07:30:09.293Z,5.55
2018-03-07T07:32:38.316Z,5.64
2018-03-07T07:35:07.889Z,5.74
2018-03-07T07:37:36.748Z,6.08
2018-03-07T07:40:06.444Z,6.45
2018-03-07T07:42:35.688Z,6.66
2018-03-07T07:45:04.776Z,6.94
2018-03-07T07:47:33.677Z,6.45
2018-03-07T07:50:02.593Z,6.37
2018-03-07T07:52:32.799Z,6.25
2018-03-07T07:55:01.630Z,6.19
2018-03-07T07:57:30.436Z,6.15
2018-03-07T07:59:59.577Z,6.07
2018-03-07T08:02:28.380Z,6.68
2018-03-07T08:04:57.319Z,7.54
2018-03-07T08:07:26.750Z,8.40
2018-03-07T08:09:55.977Z,8.75
2018-03-07T08:12:25.525Z,8.71
2018-03-07T08:14:54.536Z,8.51
2018-03-07T08:17:23.445Z,8.08
2018-03-07T08:19:52.830Z,8.03
2018-03-07T08:22:22.500Z,7.84
2018-03-07T08:24:52.852Z,8.56
2018-03-07T08:27:21.713Z,9.02
2018-03-07T08:29:50.570Z,10.52
2018-03-07T08:32:19.384Z,9.69
2018-03-07T08:34:48.561Z,10.07
2018-03-07T08:37:17.418Z,10.48
2018-03-07T08:39:46.266Z,9.80
2018-03-07T08:42:15.145Z,9.05
2018-03-07T08:44:44.300Z,9.11
2018-03-07T08:47:13.220Z,8.96
2018-03-07T08:49:42.188Z,9.70
2018-03-07T08:52:11.018Z,10.51
2018-03-07T08:54:40.182Z,12.13
2018-03-07T08:57:08.997Z,13.09
2018-03-07T08:59:37.824Z,14.80
2018-03-07T09:02:06.824Z,14.29
2018-03-07T09:04:35.652Z,13.78
2018-03-07T09:07:04.473Z,12.67
2018-03-07T09:09:33.349Z,12.50
2018-03-07T09:12:02.250Z,12.51
2018-03-07T09:14:31.168Z,12.75
2018-03-07T09:17:01.850Z,13.70
2018-03-07T09:19:30.740Z,14.05
2018-03-07T09:21:59.598Z,12.74
2018-03-07T09:24:28.545Z,11.09
2018-03-07T09:26:57.398Z,10.83
2018-03-07T09:29:26.283Z,9.93
2018-03-07T09:31:55.517Z,9.89
2018-03-07T09:34:24.317Z,9.87
2018-03-07T09:36:53.151Z,9.57
2018-03-07T09:39:22.115Z,9.38
2018-03-07T09:41:51.319Z,9.05
2018-03-07T09:44:20.211Z,9.12
2018-03-07T09:46:49.121Z,9.19
2018-03-07T09:49:17.998Z,9.16
2018-03-07T09:51:47.064Z,9.12
2018-03-07T09:54:15.905Z,9.27
2018-03-07T09:56:45.529Z,9.32
2018-03-07T09:59:14.418Z,9.16
2018-03-07T10:01:43.536Z,8.84
2018-03-07T10:04:12.567Z,8.54
2018-03-07T10:06:41.445Z,8.39
2018-03-07T10:09:10.687Z,8.75
2018-03-07T10:11:41.313Z,8.83
2018-03-07T10:14:10.205Z,9.01
2018-03-07T10:16:39.229Z,9.49
2018-03-07T10:19:08.998Z,10.59
2018-03-07T10:21:38.798Z,10.33
2018-03-07T10:24:07.691Z,10.67
2018-03-07T10:26:36.833Z,10.62
2018-03-07T10:29:05.715Z,10.20
2018-03-07T10:31:34.608Z,9.51
2018-03-07T10:34:03.411Z,9.27
2018-03-07T10:36:33.784Z,9.52
2018-03-07T10:39:03.004Z,9.47
2018-03-07T10:41:32.177Z,9.34
2018-03-07T10:44:01.006Z,9.24
2018-03-07T10:46:31.380Z,9.37
2018-03-07T10:49:00.599Z,9.33
2018-03-07T10:51:29.380Z,9.33
2018-03-07T10:53:58.244Z,9.51
2018-03-07T10:56:28.278Z,9.64
2018-03-07T10:58:57.028Z,9.86
2018-03-07T11:01:26.035Z,9.64
2018-03-07T11:03:54.943Z,9.87
2018-03-07T11:06:24.124Z,9.86
2018-03-07T11:08:52.970Z,10.11
2018-03-07T11:11:22.420Z,9.99
2018-03-07T11:13:51.306Z,10.14
2018-03-07T11:16:20.242Z,10.14
2018-03-07T11:18:49.079Z,10.17
2018-03-07T11:21:18.023Z,9.90
2018-03-07T11:23:49.332Z,9.88
2018-03-07T11:26:18.155Z,9.89
2018-03-07T11:28:48.957Z,9.90
2018-03-07T11:31:18.066Z,9.81
2018-03-07T11:33:46.956Z,9.77
2018-03-07T11:36:15.767Z,9.83
2018-03-07T11:38:44.725Z,9.68
2018-03-07T11:41:13.638Z,9.62
2018-03-07T11:43:42.984Z,9.62
2018-03-07T11:46:12.800Z,9.53
2018-03-07T11:48:41.592Z,9.50
2018-03-07T11:51:10.388Z,9.59
2018-03-07T11:53:39.331Z,9.68
2018-03-07T11:56:08.158Z,9.64
2018-03-07T11:58:36.748Z,9.68
2018-03-07T12:01:05.293Z,9.76
2018-03-07T12:03:34.306Z,9.77
2018-03-07T12:06:02.850Z,9.92
2018-03-07T12:08:32.325Z,9.77
2018-03-07T12:11:01.194Z,10.06
2018-03-07T12:13:29.876Z,10.09
2018-03-07T12:15:59.047Z,10.35
2018-03-07T12:18:29.295Z,10.02
2018-03-07T12:20:57.856Z,9.81
2018-03-07T12:23:26.508Z,9.89
2018-03-07T12:25:55.095Z,10.23
2018-03-07T12:28:26.400Z,10.38
2018-03-07T12:30:54.951Z,10.34
2018-03-07T12:33:23.502Z,10.08
2018-03-07T12:35:52.105Z,10.09
2018-03-07T12:38:20.910Z,10.04
2018-03-07T12:40:52.749Z,10.30
2018-03-07T12:43:21.387Z,10.62
2018-03-07T12:45:50.047Z,10.69
2018-03-07T12:48:18.624Z,10.49
2018-03-07T12:50:48.469Z,10.58
2018-03-07T12:53:17.119Z,10.53
2018-03-07T12:55:45.759Z,10.35
2018-03-07T12:58:14.308Z,10.11
2018-03-07T13:00:44.360Z,10.07
2018-03-07T13:03:13.562Z,9.74
2018-03-07T13:05:44.130Z,9.81
2018-03-07T13:08:12.799Z,9.46
2018-03-07T13:10:41.689Z,9.46
2018-03-07T13:13:10.272Z,9.41
2018-03-07T13:15:38.902Z,9.43
2018-03-07T13:18:07.953Z,9.27
2018-03-07T13:20:36.859Z,9.29
2018-03-07T13:23:05.496Z,9.26
2018-03-07T13:25:36.559Z,9.14
2018-03-07T13:28:05.300Z,9.16
2018-03-07T13:30:34.098Z,9.06
2018-03-07T13:33:04.398Z,9.05
2018-03-07T13:35:33.139Z,9.37
2018-03-07T13:38:01.766Z,9.97
2018-03-07T13:40:30.510Z,10.04
2018-03-07T13:43:00.896Z,10.14
2018-03-07T13:45:30.118Z,10.46
2018-03-07T13:47:58.668Z,10.68
2018-03-07T13:50:28.441Z,10.80
2018-03-07T13:52:57.278Z,10.29
2018-03-07T13:55:26.677Z,10.04
2018-03-07T13:57:55.340Z,10.29
2018-03-07T14:00:24.341Z,10.15
2018-03-07T14:02:53.918Z,10.26
2018-03-07T14:05:22.465Z,10.32
2018-03-07T14:07:52.211Z,10.34
2018-03-07T14:10:25.429Z,10.32
2018-03-07T14:12:54.216Z,10.60
2018-03-07T14:15:23.052Z,10.79
2018-03-07T14:17:51.653Z,11.27
2018-03-07T14:20:20.284Z,11.25
2018-03-07T14:22:48.860Z,11.28
2018-03-07T14:25:17.513Z,11.37
2018-03-07T14:27:47.090Z,11.16
2018-03-07T14:30:15.516Z,11.41
2018-03-07T14:32:46.170Z,11.33
2018-03-07T14:35:14.765Z,11.58
2018-03-07T14:37:43.367Z,11.85
2018-03-07T14:40:12.454Z,11.52
2018-03-07T14:42:42.220Z,11.61
2018-03-07T14:45:11.114Z,11.86
2018-03-07T14:47:40.986Z,11.72
2018-03-07T14:50:09.768Z,11.58
2018-03-07T14:52:38.487Z,11.67
2018-03-07T14:55:08.808Z,11.59
2018-03-07T14:57:38.439Z,11.43
2018-03-07T15:00:08.067Z,11.12
2018-03-07T15:02:37.359Z,11.14
2018-03-07T15:05:07.009Z,10.49
2018-03-07T15:07:35.608Z,10.27
2018-03-07T15:10:04.851Z,10.30
2018-03-07T15:12:33.478Z,10.31
2018-03-07T15:15:02.119Z,10.55
2018-03-07T15:17:30.828Z,10.89
2018-03-07T15:20:07.097Z,10.33
2018-03-07T15:22:35.957Z,10.27
2018-03-07T15:25:05.563Z,10.36
2018-03-07T15:27:34.323Z,10.25
2018-03-07T15:30:03.123Z,10.09
2018-03-07T15:32:33.076Z,10.08
2018-03-07T15:35:01.784Z,10.12
2018-03-07T15:37:30.479Z,9.79
2018-03-07T15:40:00.085Z,9.78
2018-03-07T15:42:28.609Z,9.84
2018-03-07T15:44:57.136Z,9.85
2018-03-07T15:47:25.680Z,9.85
2018-03-07T15:49:54.560Z,9.83
2018-03-07T15:52:23.148Z,9.66
2018-03-07T15:54:51.734Z,9.80
2018-03-07T15:57:22.171Z,9.71
2018-03-07T15:59:51.981Z,9.54
2018-03-07T16:02:20.964Z,9.63
2018-03-07T16:04:49.535Z,9.49
2018-03-07T16:07:20.072Z,9.44
2018-03-07T16:09:48.850Z,9.39
2018-03-07T16:12:18.276Z,9.56
2018-03-07T16:14:47.432Z,9.41
2018-03-07T16:17:16.068Z,9.33
2018-03-07T16:19:45.705Z,9.20
2018-03-07T16:22:14.330Z,9.21
2018-03-07T16:24:43.939Z,9.01
2018-03-07T16:27:12.956Z,8.63
2018-03-07T16:29:41.614Z,8.40
2018-03-07T16:32:10.409Z,8.11
2018-03-07T16:34:38.995Z,7.88
2018-03-07T16:37:08.012Z,7.74
2018-03-07T16:39:36.709Z,7.65
2018-03-07T16:42:05.492Z,7.56
2018-03-07T16:44:34.153Z,7.51
2018-03-07T16:47:02.852Z,7.48
2018-03-07T16:49:32.704Z,7.44
2018-03-07T16:52:01.626Z,7.20
2018-03-07T16:54:30.585Z,7.16
2018-03-07T16:56:59.197Z,7.25
2018-03-07T16:59:28.402Z,6.96
2018-03-07T17:01:58.112Z,6.70
2018-03-07T17:04:33.565Z,6.58
2018-03-07T17:07:02.180Z,6.34
2018-03-07T17:09:30.978Z,6.36
2018-03-07T17:11:59.882Z,6.37
2018-03-07T17:14:28.792Z,6.37
2018-03-07T17:16:58.267Z,6.30
2018-03-07T17:19:26.944Z,6.15
2018-03-07T17:21:55.688Z,6.23
2018-03-07T17:24:25.103Z,6.07
2018-03-07T17:26:54.232Z,6.12
2018-03-07T17:29:24.819Z,6.18
2018-03-07T17:31:55.047Z,6.36
2018-03-07T17:34:33.213Z,6.17
2018-03-07T17:37:03.077Z,6.64
2018-03-07T17:39:36.771Z,6.38
2018-03-07T17:42:07.777Z,6.23
2018-03-07T17:44:38.582Z,6.08
2018-03-07T17:47:07.536Z,6.08
2018-03-07T17:49:36.220Z,6.08
2018-03-07T17:52:06.036Z,5.90
2018-03-07T17:54:35.645Z,5.77
2018-03-07T17:57:08.167Z,5.69
2018-03-07T17:59:36.914Z,5.34
2018-03-07T18:02:07.247Z,5.32
2018-03-07T18:04:36.777Z,5.19
2018-03-07T18:07:06.370Z,5.14
2018-03-07T18:09:35.447Z,5.23
2018-03-07T18:12:06.151Z,5.19
2018-03-07T18:14:37.533Z,5.32
2018-03-07T18:17:11.029Z,5.40
2018-03-07T18:19:39.773Z,5.79
2018-03-07T18:22:08.790Z,5.96
2018-03-07T18:24:38.929Z,6.04
2018-03-07T18:27:08.511Z,6.24
2018-03-07T18:29:38.089Z,6.24
2018-03-07T18:32:07.050Z,6.36
2018-03-07T18:34:35.881Z,6.26
2018-03-07T18:37:06.301Z,6.18
2018-03-07T18:39:35.447Z,6.24
2018-03-07T18:42:06.426Z,6.14
2018-03-07T18:44:35.196Z,6.01
2018-03-07T18:47:05.361Z,5.93
2018-03-07T18:49:34.152Z,5.96
2018-03-07T18:52:02.772Z,5.90
2018-03-07T18:54:31.544Z,5.87
2018-03-07T18:57:01.125Z,5.87
2018-03-07T18:59:31.933Z,5.86
2018-03-07T19:02:03.204Z,5.50
2018-03-07T19:04:35.256Z,5.46
2018-03-07T19:07:06.372Z,5.29
2018-03-07T19:09:35.371Z,5.20
2018-03-07T19:12:06.436Z,5.19
2018-03-07T19:14:35.143Z,5.06
2018-03-07T19:17:04.880Z,5.14
2018-03-07T19:19:33.869Z,4.79
2018-03-07T19:22:07.259Z,4.84
2018-03-07T19:27:16.964Z,4.83
2018-03-07T19:29:45.632Z,4.79
2018-03-07T19:32:15.173Z,4.67
2018-03-07T19:37:13.898Z,4.43
2018-03-07T19:39:44.128Z,4.36
2018-03-07T19:42:13.984Z,4.32
2018-03-07T19:44:43.394Z,4.30
2018-03-07T19:47:14.194Z,4.46
2018-03-07T19:49:43.889Z,4.43
2018-03-07T19:52:13.362Z,4.58
2018-03-07T19:54:52.416Z,4.42
2018-03-07T19:57:21.360Z,4.17
2018-03-07T19:59:50.011Z,4.17
2018-03-07T20:02:19.162Z,4.11
2018-03-07T20:04:50.706Z,4.05
2018-03-07T20:07:19.649Z,4.22
2018-03-07T20:09:50.616Z,4.33
2018-03-07T20:12:21.462Z,4.44
2018-03-07T20:14:50.737Z,4.23
2018-03-07T20:17:20.141Z,4.11
2018-03-07T20:19:49.518Z,4.17
2018-03-07T20:22:19.612Z,4.10
2018-03-07T20:24:48.427Z,4.19
2018-03-07T20:27:17.354Z,4.41
2018-03-07T20:29:48.063Z,4.41
2018-03-07T20:32:16.809Z,4.42
2018-03-07T20:34:45.473Z,4.47
2018-03-07T20:37:19.353Z,4.30
2018-03-07T20:39:48.268Z,4.20
2018-03-07T20:42:17.140Z,4.34
2018-03-07T20:44:46.779Z,4.32
2018-03-07T20:47:20.899Z,4.57
2018-03-07T20:49:50.573Z,4.63
2018-03-07T20:52:20.105Z,4.75
2018-03-07T20:54:48.695Z,5.04
2018-03-07T20:57:17.647Z,5.20
2018-03-07T20:59:48.456Z,5.37
2018-03-07T21:02:17.632Z,5.57
2018-03-07T21:04:48.732Z,5.54
2018-03-07T21:07:17.668Z,5.68
2018-03-07T21:09:48.350Z,5.63
2018-03-07T21:12:18.295Z,5.68
2018-03-07T21:14:47.348Z,5.79
2018-03-07T21:17:15.941Z,5.73
2018-03-07T21:19:45.089Z,5.80
2018-03-07T21:22:13.612Z,5.80
2018-03-07T21:24:42.170Z,5.85
2018-03-07T21:27:11.060Z,5.81
2018-03-07T21:29:40.296Z,5.77
2018-03-07T21:32:09.070Z,5.82
2018-03-07T21:34:37.766Z,5.71
2018-03-07T21:37:07.676Z,5.63
2018-03-07T21:39:37.716Z,5.58
2018-03-07T21:42:06.230Z,5.53
2018-03-07T21:44:34.871Z,5.51
2018-03-07T21:47:03.641Z,5.44
2018-03-07T21:49:32.212Z,5.33
2018-03-07T21:52:00.913Z,5.32
2018-03-07T21:54:29.722Z,5.28
2018-03-07T21:56:58.258Z,5.28
2018-03-07T21:59:26.871Z,5.22
2018-03-07T22:01:55.499Z,5.20
2018-03-07T22:04:25.331Z,5.09
2018-03-07T22:06:54.834Z,5.12
2018-03-07T22:09:24.225Z,4.95
2018-03-07T22:11:52.756Z,4.98
2018-03-07T22:14:21.397Z,4.87
2018-03-07T22:16:49.996Z,4.80
2018-03-07T22:19:18.816Z,4.83
2018-03-07T22:21:47.986Z,4.82
2018-03-07T22:24:16.689Z,4.78
2018-03-07T22:26:45.242Z,4.90
2018-03-07T22:29:13.856Z,5.02
2018-03-07T22:31:42.401Z,5.17
2018-03-07T22:34:15.026Z,5.14
2018-03-07T22:36:43.654Z,5.01
2018-03-07T22:39:12.301Z,5.01
2018-03-07T22:41:41.925Z,5.08
2018-03-07T22:44:10.511Z,5.17
2018-03-07T22:46:39.184Z,5.13
2018-03-07T22:49:15.935Z,5.09
2018-03-07T22:51:44.684Z,5.10
2018-03-07T22:54:13.565Z,5.17
2018-03-07T22:56:42.215Z,5.31
2018-03-07T22:59:11.984Z,5.20
2018-03-07T23:01:40.740Z,5.24
2018-03-07T23:04:09.412Z,5.15
2018-03-07T23:06:37.978Z,5.18
2018-03-07T23:09:07.197Z,5.16
2018-03-07T23:11:35.737Z,5.23
2018-03-07T23:14:04.794Z,5.21
2018-03-07T23:16:33.670Z,5.21
2018-03-07T23:19:02.704Z,5.18
2018-03-07T23:21:31.967Z,5.18
2018-03-07T23:24:01.999Z,5.09
2018-03-07T23:26:31.650Z,5.13
2018-03-07T23:29:00.593Z,5.09
2018-03-07T23:31:29.257Z,5.11
2018-03-07T23:33:57.984Z,5.04
2018-03-07T23:36:26.625Z,5.01
2018-03-07T23:38:55.665Z,5.09
2018-03-07T23:41:25.987Z,5.01
2018-03-07T23:43:54.548Z,5.04
2018-03-07T23:46:23.096Z,5.00
2018-03-07T23:48:51.589Z,4.81
2018-03-07T23:51:20.536Z,4.85
2018-03-07T23:53:49.193Z,4.85
2018-03-07T23:56:17.979Z,4.88
2018-03-07T23:58:46.604Z,4.78
